Time;durP1;ratioP1;P1;durP2;ratioP2;P2;SDS_P1;SDS_P2;PMS_P1;PMS_P2;Temp;Humidity;BMP_temperature;BMP_pressure;BME280_temperature;BME280_humidity;BME280_pressure;Samples;Min_cycle;Max_cycle;Signal;HPM_P1;HPM_P2
2021/08/18 00:00:26;;;;;;;;;;;;;;;24.16;54.82;100330.59;2076856;28;19950;-67
2021/08/18 00:01:26;;;;;;;;;;;;;;;24.15;54.84;100329.69;2073594;28;19921;-67
2021/08/18 00:02:26;;;;;;;;;;;;;;;24.14;54.89;100325.25;2075290;28;20019;-67
2021/08/18 00:03:28;;;;;;;;;;;;;;;24.14;54.86;100324.38;2071550;28;19928;-67
2021/08/18 00:04:28;;;;;;;;;;;;;;;24.15;54.82;100320.59;2072381;28;19929;-67
2021/08/18 00:05:29;;;;;;;;;;;;;;;24.13;54.85;100326.28;2075286;28;19924;-67
2021/08/18 00:06:29;;;;;;;;;;;;;;;24.14;54.89;100330.75;2069625;28;19953;-67
2021/08/18 00:07:29;;;;;;;;;;;;;;;24.14;54.84;100321.63;2074214;28;19920;-67
2021/08/18 00:08:30;;;;;;;;;;;;;;;24.12;54.90;100320.94;2073848;28;19927;-67
2021/08/18 00:09:30;;;;;;;;;;;;;;;24.14;54.93;100324.38;2074290;28;19933;-67
2021/08/18 00:10:31;;;;;;;;;;;;;;;24.12;54.83;100315.44;2074571;28;20072;-67
2021/08/18 00:11:31;;;;;;;;;;;;;;;24.12;54.95;100320.94;2075319;28;19920;-67
2021/08/18 00:12:31;;;;;;;;;;;;;;;24.13;54.96;100322.66;2074438;28;19997;-68
2021/08/18 00:13:32;;;;;;;;;;;;;;;24.14;54.97;100316.13;2076090;28;20570;-67
2021/08/18 00:14:32;;;;;;;;;;;;;;;24.13;54.84;100320.78;2073728;28;19921;-67
2021/08/18 00:15:33;;;;;;;;;;;;;;;24.13;54.95;100318.03;2081114;28;20503;-67
2021/08/18 00:16:33;;;;;;;;;;;;;;;24.13;54.93;100319.91;2083058;28;19931;-67
2021/08/18 00:17:54;;;;;;;;;;;;;;;24.12;54.94;100315.44;2073730;28;20230;-67
2021/08/18 00:18:54;;;;;;;;;;;;;;;24.12;55.02;100316.28;2072248;28;20628;-67
2021/08/18 00:19:54;;;;;;;;;;;;;;;24.12;54.98;100316.28;2075986;28;19978;-67
2021/08/18 00:20:55;;;;;;;;;;;;;;;24.12;55.04;100320.94;2073252;28;19986;-67
2021/08/18 00:21:55;;;;;;;;;;;;;;;24.13;55.18;100312.53;2073904;28;19920;-67
2021/08/18 00:22:56;;;;;;;;;;;;;;;24.15;55.01;100306.81;2066602;28;19913;-67
2021/08/18 00:23:56;;;;;;;;;;;;;;;24.13;54.99;100306.13;2074169;28;19916;-67
2021/08/18 00:24:56;;;;;;;;;;;;;;;24.13;55.05;100306.13;2075021;28;20182;-67
2021/08/18 00:25:57;;;;;;;;;;;;;;;24.12;55.00;100304.44;2075302;28;19995;-67
2021/08/18 00:26:57;;;;;;;;;;;;;;;24.13;55.09;100307.00;2074033;28;20037;-67
2021/08/18 00:27:57;;;;;;;;;;;;;;;24.14;55.01;100307.88;2083130;28;19929;-67
2021/08/18 00:28:58;;;;;;;;;;;;;;;24.14;55.05;100307.88;2081601;28;20557;-67
2021/08/18 00:29:58;;;;;;;;;;;;;;;24.13;55.08;100306.13;2075010;28;19956;-68
2021/08/18 00:30:58;;;;;;;;;;;;;;;24.12;55.03;100310.78;2075674;28;19923;-68
2021/08/18 00:31:59;;;;;;;;;;;;;;;24.12;55.16;100304.44;2074737;28;20293;-68
2021/08/18 00:33:18;;;;;;;;;;;;;;;24.12;55.11;100304.44;2076020;28;19927;-67
2021/08/18 00:34:18;;;;;;;;;;;;;;;24.14;55.11;100305.09;2070540;28;19921;-67
2021/08/18 00:35:19;;;;;;;;;;;;;;;24.13;55.11;100311.63;2073850;28;20023;-68
2021/08/18 00:36:19;;;;;;;;;;;;;;;24.11;55.17;100311.84;2075592;28;19974;-67
2021/08/18 00:37:19;;;;;;;;;;;;;;;24.11;55.03;100308.22;2074696;28;19921;-68
2021/08/18 00:38:20;;;;;;;;;;;;;;;24.12;55.16;100309.94;2074075;28;20383;-68
2021/08/18 00:39:45;;;;;;;;;;;;;;;24.11;55.18;100308.22;2076208;28;20360;-68
2021/08/18 00:40:45;;;;;;;;;;;;;;;24.11;55.15;100308.22;2075223;28;20041;-67
2021/08/18 00:41:46;;;;;;;;;;;;;;;24.11;55.15;100310.97;2074324;28;19974;-68
2021/08/18 00:42:46;;;;;;;;;;;;;;;24.11;55.13;100308.22;2076172;28;19921;-67
2021/08/18 00:43:47;;;;;;;;;;;;;;;24.11;55.15;100313.75;2074323;28;20014;-68
2021/08/18 00:44:47;;;;;;;;;;;;;;;24.13;55.17;100306.13;2073930;28;19927;-68
2021/08/18 00:45:49;;;;;;;;;;;;;;;24.11;55.21;100317.34;2075153;28;19920;-67
2021/08/18 00:46:50;;;;;;;;;;;;;;;24.11;55.29;100308.22;2070258;28;19921;-68
2021/08/18 00:47:51;;;;;;;;;;;;;;;24.11;55.33;100305.47;2066608;28;19931;-68
2021/08/18 00:48:52;;;;;;;;;;;;;;;24.10;55.21;100307.34;2074358;28;20388;-68
2021/08/18 00:49:52;;;;;;;;;;;;;;;24.11;55.11;100316.50;2081596;28;20516;-67
2021/08/18 00:50:52;;;;;;;;;;;;;;;24.09;55.27;100311.16;2081660;28;20011;-67
2021/08/18 00:51:57;;;;;;;;;;;;;;;24.10;55.23;100303.75;2078346;28;19939;-68
2021/08/18 00:52:57;;;;;;;;;;;;;;;24.10;55.27;100306.50;2075394;28;19924;-67
2021/08/18 00:53:57;;;;;;;;;;;;;;;24.11;55.24;100305.47;2076177;28;19909;-68
2021/08/18 00:54:58;;;;;;;;;;;;;;;24.10;55.27;100306.50;2076167;28;20598;-67
2021/08/18 00:55:58;;;;;;;;;;;;;;;24.11;55.26;100308.22;2073218;28;19925;-67
2021/08/18 00:57:00;;;;;;;;;;;;;;;24.11;55.36;100303.56;2075436;28;20208;-68
2021/08/18 00:58:01;;;;;;;;;;;;;;;24.11;55.18;100309.09;2074879;28;19921;-67
2021/08/18 00:59:02;;;;;;;;;;;;;;;24.10;55.29;100307.34;2074169;28;19924;-67
2021/08/18 01:00:02;;;;;;;;;;;;;;;24.11;55.30;100302.72;2076304;28;19924;-67
2021/08/18 01:01:03;;;;;;;;;;;;;;;24.10;55.28;100303.75;2070592;28;19925;-67
2021/08/18 01:02:04;;;;;;;;;;;;;;;24.09;55.30;100299.28;2073141;28;19920;-68
2021/08/18 01:03:05;;;;;;;;;;;;;;;24.10;55.42;100306.50;2083000;28;20572;-67
2021/08/18 01:04:05;;;;;;;;;;;;;;;24.10;55.39;100309.25;2083390;28;19912;-68
2021/08/18 01:05:10;;;;;;;;;;;;;;;24.09;55.29;100305.66;2072825;28;19966;-68
2021/08/18 01:06:11;;;;;;;;;;;;;;;24.10;55.36;100301.00;2076164;28;20431;-67
2021/08/18 01:07:11;;;;;;;;;;;;;;;24.09;55.44;100297.38;2077117;28;19993;-68
2021/08/18 01:08:12;;;;;;;;;;;;;;;24.10;55.45;100301.00;2082143;28;19967;-67
2021/08/18 01:09:14;;;;;;;;;;;;;;;24.09;55.41;100293.78;2083160;28;19917;-67
2021/08/18 01:10:16;;;;;;;;;;;;;;;24.10;55.37;100295.47;2077089;28;19975;-67
2021/08/18 01:11:16;;;;;;;;;;;;;;;24.09;55.58;100291.03;2076011;28;19916;-67
2021/08/18 01:12:16;;;;;;;;;;;;;;;24.09;55.51;100289.13;2077109;28;20040;-68
2021/08/18 01:13:19;;;;;;;;;;;;;;;24.11;55.42;100297.22;2074461;28;19924;-67
2021/08/18 01:14:19;;;;;;;;;;;;;;;24.11;55.46;100291.72;2075426;28;19924;-67
2021/08/18 01:15:21;;;;;;;;;;;;;;;24.10;55.42;100290.81;2076920;28;19971;-68
2021/08/18 01:16:21;;;;;;;;;;;;;;;24.10;55.39;100295.47;2076920;28;19928;-68
2021/08/18 01:17:21;;;;;;;;;;;;;;;24.10;55.40;100293.56;2083235;28;19920;-67
2021/08/18 01:18:22;;;;;;;;;;;;;;;24.11;55.48;100291.72;2076620;28;20151;-68
2021/08/18 01:19:22;;;;;;;;;;;;;;;24.10;55.42;100288.06;2076085;28;19921;-67
2021/08/18 01:20:28;;;;;;;;;;;;;;;24.09;55.49;100289.13;2077361;28;20411;-67
2021/08/18 01:21:29;;;;;;;;;;;;;;;24.09;55.49;100286.38;2075247;28;20194;-67
2021/08/18 01:22:29;;;;;;;;;;;;;;;24.09;55.54;100282.75;2076795;28;20255;-67
2021/08/18 01:23:29;;;;;;;;;;;;;;;24.09;55.47;100291.03;2077930;28;19956;-67
2021/08/18 01:24:30;;;;;;;;;;;;;;;24.08;55.59;100286.53;2072906;28;20315;-67
2021/08/18 01:25:30;;;;;;;;;;;;;;;24.08;55.63;100298.44;2076127;28;19917;-67
2021/08/18 01:26:31;;;;;;;;;;;;;;;24.08;55.60;100294.78;2077101;28;19921;-67
2021/08/18 01:27:32;;;;;;;;;;;;;;;24.08;55.66;100292.03;2073108;28;20402;-67
2021/08/18 01:28:32;;;;;;;;;;;;;;;24.08;55.76;100297.53;2075729;28;20399;-67
2021/08/18 01:29:32;;;;;;;;;;;;;;;24.07;55.66;100293.09;2077535;28;19917;-67
2021/08/18 01:30:33;;;;;;;;;;;;;;;24.07;55.66;100296.69;2076324;28;20304;-68
2021/08/18 01:31:33;;;;;;;;;;;;;;;24.07;55.62;100293.94;2077621;28;19917;-68
2021/08/18 01:32:41;;;;;;;;;;;;;;;24.09;55.68;100299.28;2069102;28;19924;-67
2021/08/18 01:33:41;;;;;;;;;;;;;;;24.07;55.70;100295.84;2076031;28;20360;-68
2021/08/18 01:34:41;;;;;;;;;;;;;;;24.08;55.68;100286.53;2078594;28;20403;-67
2021/08/18 01:35:46;;;;;;;;;;;;;;;24.08;55.73;100292.03;2070994;28;19923;-68
2021/08/18 01:36:46;;;;;;;;;;;;;;;24.07;55.67;100291.19;2075474;28;19992;-67
2021/08/18 01:37:47;;;;;;;;;;;;;;;24.08;55.67;100286.53;2076957;28;19959;-67
2021/08/18 01:38:47;;;;;;;;;;;;;;;24.07;55.71;100296.69;2082421;28;19923;-67
2021/08/18 01:39:47;;;;;;;;;;;;;;;24.08;55.77;100292.03;2083647;28;20026;-67
2021/08/18 01:40:51;;;;;;;;;;;;;;;24.07;55.78;100291.19;2077343;28;19924;-68
2021/08/18 01:41:52;;;;;;;;;;;;;;;24.06;55.74;100288.63;2076183;28;19913;-67
2021/08/18 01:42:52;;;;;;;;;;;;;;;24.07;55.80;100290.34;2077067;28;19920;-67
2021/08/18 01:43:53;;;;;;;;;;;;;;;24.07;55.77;100284.81;2075707;28;20560;-67
2021/08/18 01:44:53;;;;;;;;;;;;;;;24.06;55.65;100294.13;2084367;28;20414;-68
2021/08/18 01:45:53;;;;;;;;;;;;;;;24.07;55.76;100290.34;2085446;28;19912;-68
2021/08/18 01:46:54;;;;;;;;;;;;;;;24.07;55.82;100290.34;2075764;28;19916;-68
2021/08/18 01:47:54;;;;;;;;;;;;;;;24.06;55.78;100291.38;2077513;28;19924;-67
2021/08/18 01:48:55;;;;;;;;;;;;;;;24.06;55.84;100295.00;2075772;28;19920;-68
2021/08/18 01:49:55;;;;;;;;;;;;;;;24.06;55.83;100295.00;2083632;28;19917;-67
2021/08/18 01:50:57;;;;;;;;;;;;;;;24.06;55.99;100289.47;2085027;28;19916;-68
2021/08/18 01:51:57;;;;;;;;;;;;;;;24.07;55.80;100290.34;2075504;28;19920;-67
2021/08/18 01:52:58;;;;;;;;;;;;;;;24.07;55.82;100296.69;2076420;28;20240;-68
2021/08/18 01:53:58;;;;;;;;;;;;;;;24.07;55.89;100301.34;2077577;28;19998;-67
2021/08/18 01:54:59;;;;;;;;;;;;;;;24.06;55.82;100299.66;2073982;28;20234;-68
2021/08/18 01:56:03;;;;;;;;;;;;;;;24.06;55.91;100294.13;2084237;28;20373;-67
2021/08/18 01:57:03;;;;;;;;;;;;;;;24.06;55.80;100295.00;2082511;28;19949;-67
2021/08/18 01:58:05;;;;;;;;;;;;;;;24.06;55.85;100295.00;2073252;28;19975;-68
2021/08/18 01:59:05;;;;;;;;;;;;;;;24.07;55.89;100301.34;2076950;28;19931;-68
2021/08/18 02:00:06;;;;;;;;;;;;;;;24.06;55.88;100294.13;2076462;28;20374;-68
2021/08/18 02:01:08;;;;;;;;;;;;;;;24.06;55.99;100294.13;2081537;28;19962;-67
2021/08/18 02:02:08;;;;;;;;;;;;;;;24.05;56.06;100289.66;2084709;28;19947;-67
2021/08/18 02:03:09;;;;;;;;;;;;;;;24.06;55.93;100291.38;2075613;28;19917;-68
2021/08/18 02:04:09;;;;;;;;;;;;;;;24.05;55.94;100292.41;2076732;28;19929;-68
2021/08/18 02:05:10;;;;;;;;;;;;;;;24.05;56.00;100293.25;2073258;28;20407;-67
2021/08/18 02:06:11;;;;;;;;;;;;;;;24.04;55.98;100290.69;2075393;28;19927;-67
2021/08/18 02:07:11;;;;;;;;;;;;;;;24.04;55.97;100285.19;2077451;28;19917;-67
2021/08/18 02:08:11;;;;;;;;;;;;;;;24.05;56.04;100289.66;2076438;28;21566;-67
2021/08/18 02:09:11;;;;;;;;;;;;;;;24.04;56.13;100286.03;2079730;28;20786;-67
2021/08/18 02:10:13;;;;;;;;;;;;;;;24.05;55.96;100286.91;2074056;28;20416;-67
2021/08/18 02:11:13;;;;;;;;;;;;;;;24.05;56.07;100292.41;2075992;28;19972;-68
2021/08/18 02:12:14;;;;;;;;;;;;;;;24.04;56.20;100285.19;2076085;28;19924;-68
2021/08/18 02:13:14;;;;;;;;;;;;;;;24.04;56.07;100294.31;2075375;28;19921;-67
2021/08/18 02:14:15;;;;;;;;;;;;;;;24.03;56.05;100283.47;2075931;28;19924;-68
2021/08/18 02:15:19;;;;;;;;;;;;;;;24.04;56.10;100296.22;2076302;28;20347;-68
2021/08/18 02:16:19;;;;;;;;;;;;;;;24.02;56.04;100288.09;2072636;28;20281;-67
2021/08/18 02:17:20;;;;;;;;;;;;;;;24.04;56.13;100294.31;2069949;28;19931;-67
2021/08/18 02:18:20;;;;;;;;;;;;;;;24.04;56.13;100296.22;2075943;28;19924;-68
2021/08/18 02:19:20;;;;;;;;;;;;;;;24.03;56.08;100294.47;2076514;28;19971;-67
2021/08/18 02:20:22;;;;;;;;;;;;;;;24.03;56.13;100294.47;2076834;28;19924;-66
2021/08/18 02:21:22;;;;;;;;;;;;;;;24.03;56.19;100295.31;2075960;28;19927;-67
2021/08/18 02:22:23;;;;;;;;;;;;;;;24.03;56.12;100288.97;2078230;28;20387;-67
2021/08/18 02:23:23;;;;;;;;;;;;;;;24.04;56.13;100285.19;2076109;28;20200;-67
2021/08/18 02:24:24;;;;;;;;;;;;;;;24.04;56.12;100287.94;2074644;28;20338;-67
2021/08/18 02:25:24;;;;;;;;;;;;;;;24.04;56.15;100290.69;2077963;28;20579;-67
2021/08/18 02:26:25;;;;;;;;;;;;;;;24.02;56.08;100288.09;2076235;28;20380;-67
2021/08/18 02:27:25;;;;;;;;;;;;;;;24.03;56.17;100288.97;2075402;28;20361;-67
2021/08/18 02:28:25;;;;;;;;;;;;;;;24.02;56.14;100288.09;2076797;28;19921;-67
2021/08/18 02:29:26;;;;;;;;;;;;;;;24.03;56.14;100283.47;2071781;28;19921;-67
2021/08/18 02:30:27;;;;;;;;;;;;;;;24.02;56.19;100284.50;2073410;28;19982;-67
2021/08/18 02:31:29;;;;;;;;;;;;;;;24.03;56.20;100283.47;2075007;28;19921;-68
2021/08/18 02:32:29;;;;;;;;;;;;;;;24.02;56.21;100284.50;2075763;28;20275;-67
2021/08/18 02:33:30;;;;;;;;;;;;;;;24.02;56.29;100287.25;2077160;28;20019;-67
2021/08/18 02:34:30;;;;;;;;;;;;;;;24.02;56.17;100292.75;2074729;28;19920;-67
2021/08/18 02:35:31;;;;;;;;;;;;;;;24.00;56.17;100287.44;2074775;28;20008;-67
2021/08/18 02:36:31;;;;;;;;;;;;;;;24.01;56.28;100285.53;2073542;28;19970;-67
2021/08/18 02:37:32;;;;;;;;;;;;;;;24.01;56.21;100283.66;2075928;28;19921;-67
2021/08/18 02:38:32;;;;;;;;;;;;;;;24.03;56.14;100280.69;2076728;28;19912;-67
2021/08/18 02:39:32;;;;;;;;;;;;;;;24.03;56.19;100289.81;2075031;28;19925;-67
2021/08/18 02:40:32;;;;;;;;;;;;;;;24.02;56.28;100287.25;2076287;28;19934;-67
2021/08/18 02:41:33;;;;;;;;;;;;;;;24.03;56.22;100288.97;2077178;28;19913;-68
2021/08/18 02:42:33;;;;;;;;;;;;;;;24.02;56.29;100292.75;2074143;28;20403;-67
2021/08/18 02:43:34;;;;;;;;;;;;;;;24.02;56.25;100287.25;2076172;28;20429;-68
2021/08/18 02:44:34;;;;;;;;;;;;;;;24.02;56.27;100284.50;2073308;28;20024;-67
2021/08/18 02:45:35;;;;;;;;;;;;;;;24.01;56.27;100286.41;2074323;28;19913;-66
2021/08/18 02:46:35;;;;;;;;;;;;;;;24.01;56.23;100282.78;2075919;28;19917;-67
2021/08/18 02:47:35;;;;;;;;;;;;;;;24.02;56.34;100279.84;2081271;28;20648;-69
2021/08/18 02:48:36;;;;;;;;;;;;;;;24.02;56.27;100284.50;2086545;28;19939;-70
2021/08/18 02:49:36;;;;;;;;;;;;;;;24.03;56.30;100283.47;2085787;28;20383;-69
2021/08/18 02:50:37;;;;;;;;;;;;;;;24.01;56.29;100282.78;2085025;28;20418;-69
2021/08/18 02:51:37;;;;;;;;;;;;;;;24.03;56.26;100283.47;2077645;28;19920;-69
2021/08/18 02:52:37;;;;;;;;;;;;;;;24.01;56.26;100280.00;2075475;28;19920;-69
2021/08/18 02:53:38;;;;;;;;;;;;;;;24.01;56.35;100283.66;2078909;28;20495;-69
2021/08/18 02:54:38;;;;;;;;;;;;;;;24.02;56.29;100281.75;2075255;28;19928;-69
2021/08/18 02:55:38;;;;;;;;;;;;;;;24.01;56.27;100280.00;2077183;28;19924;-69
2021/08/18 02:56:39;;;;;;;;;;;;;;;24.01;56.35;100285.53;2077438;28;19920;-69
2021/08/18 02:57:39;;;;;;;;;;;;;;;24.01;56.35;100282.78;2078260;28;19959;-69
2021/08/18 02:58:40;;;;;;;;;;;;;;;24.01;56.35;100274.50;2077869;28;20478;-68
2021/08/18 02:59:40;;;;;;;;;;;;;;;24.01;56.29;100280.91;2074524;28;19928;-68
2021/08/18 03:00:40;;;;;;;;;;;;;;;24.01;56.38;100280.00;2076356;28;19927;-68
2021/08/18 03:01:40;;;;;;;;;;;;;;;24.01;56.41;100285.53;2078853;28;19970;-68
2021/08/18 03:02:41;;;;;;;;;;;;;;;24.01;56.38;100274.50;2077771;28;19963;-68
2021/08/18 03:03:41;;;;;;;;;;;;;;;24.01;56.39;100269.00;2072812;28;20299;-69
2021/08/18 03:04:41;;;;;;;;;;;;;;;24.00;56.37;100272.81;2076446;28;20444;-68
2021/08/18 03:05:42;;;;;;;;;;;;;;;24.01;56.35;100280.91;2078986;28;20977;-68
2021/08/18 03:06:42;;;;;;;;;;;;;;;24.01;56.36;100274.50;2077779;28;20288;-68
2021/08/18 03:07:43;;;;;;;;;;;;;;;24.00;56.44;100278.31;2077682;28;20011;-69
2021/08/18 03:08:43;;;;;;;;;;;;;;;24.01;56.42;100275.41;2076782;28;19986;-68
2021/08/18 03:09:43;;;;;;;;;;;;;;;24.00;56.49;100273.66;2075902;28;19912;-68
2021/08/18 03:10:44;;;;;;;;;;;;;;;23.99;56.43;100269.19;2075409;28;20435;-68
2021/08/18 03:11:44;;;;;;;;;;;;;;;24.00;56.41;100267.31;2077116;28;19975;-68
2021/08/18 03:12:44;;;;;;;;;;;;;;;23.99;56.54;100271.97;2076539;28;19909;-68
2021/08/18 03:13:45;;;;;;;;;;;;;;;23.99;56.44;100271.97;2076328;28;20103;-69
2021/08/18 03:14:45;;;;;;;;;;;;;;;23.99;56.45;100273.84;2077074;28;19959;-68
2021/08/18 03:15:45;;;;;;;;;;;;;;;24.00;56.52;100268.16;2077154;28;19923;-68
2021/08/18 03:16:47;;;;;;;;;;;;;;;23.99;56.45;100271.09;2079143;28;20013;-68
2021/08/18 03:17:47;;;;;;;;;;;;;;;24.00;56.49;100272.81;2076483;28;19909;-68
2021/08/18 03:18:48;;;;;;;;;;;;;;;24.00;56.47;100272.81;2076518;28;19917;-68
2021/08/18 03:19:48;;;;;;;;;;;;;;;23.99;56.39;100271.09;2076502;28;19928;-68
2021/08/18 03:20:48;;;;;;;;;;;;;;;23.99;56.55;100265.59;2077951;28;20537;-67
2021/08/18 03:21:49;;;;;;;;;;;;;;;23.98;56.64;100269.38;2077329;28;20016;-69
2021/08/18 03:22:49;;;;;;;;;;;;;;;23.98;56.55;100266.63;2077267;28;19948;-68
2021/08/18 03:23:49;;;;;;;;;;;;;;;23.99;56.58;100265.59;2077375;28;20684;-68
2021/08/18 03:24:50;;;;;;;;;;;;;;;23.98;56.47;100269.38;2074459;28;19939;-68
2021/08/18 03:25:51;;;;;;;;;;;;;;;23.99;56.62;100271.97;2078773;28;19921;-68
2021/08/18 03:26:51;;;;;;;;;;;;;;;23.98;56.59;100264.72;2075954;28;19974;-68
2021/08/18 03:27:51;;;;;;;;;;;;;;;23.98;56.63;100269.38;2076494;28;19927;-68
2021/08/18 03:28:51;;;;;;;;;;;;;;;23.98;56.63;100263.84;2076156;28;19921;-68
2021/08/18 03:29:52;;;;;;;;;;;;;;;23.98;56.56;100269.38;2071705;28;20182;-68
2021/08/18 03:30:52;;;;;;;;;;;;;;;23.98;56.69;100261.09;2079055;28;20019;-68
2021/08/18 03:31:52;;;;;;;;;;;;;;;23.98;56.62;100263.84;2076236;28;19921;-68
2021/08/18 03:32:53;;;;;;;;;;;;;;;23.98;56.66;100264.72;2076063;28;20179;-68
2021/08/18 03:33:53;;;;;;;;;;;;;;;23.98;56.66;100266.63;2077382;28;20008;-68
2021/08/18 03:34:53;;;;;;;;;;;;;;;23.98;56.75;100255.59;2076408;28;19955;-68
2021/08/18 03:35:54;;;;;;;;;;;;;;;23.96;56.69;100261.31;2077434;28;19925;-68
2021/08/18 03:36:54;;;;;;;;;;;;;;;23.98;56.68;100266.63;2075801;28;20311;-68
2021/08/18 03:37:54;;;;;;;;;;;;;;;23.97;56.70;100263.00;2076549;28;19951;-68
2021/08/18 03:38:55;;;;;;;;;;;;;;;23.98;56.78;100255.59;2075965;28;20305;-68
2021/08/18 03:39:56;;;;;;;;;;;;;;;23.97;56.75;100263.00;2083759;28;20496;-68
2021/08/18 03:40:56;;;;;;;;;;;;;;;23.96;56.77;100261.31;2084360;28;19916;-68
2021/08/18 03:41:56;;;;;;;;;;;;;;;23.97;56.84;100263.00;2074699;28;20346;-69
2021/08/18 03:42:57;;;;;;;;;;;;;;;23.95;56.71;100265.94;2084621;28;19928;-68
2021/08/18 03:43:57;;;;;;;;;;;;;;;23.97;56.73;100263.00;2082661;28;19960;-67
2021/08/18 03:44:57;;;;;;;;;;;;;;;23.97;56.77;100263.00;2076616;28;19932;-68
2021/08/18 03:45:58;;;;;;;;;;;;;;;23.98;56.69;100255.59;2076539;28;19955;-68
2021/08/18 03:46:58;;;;;;;;;;;;;;;23.97;56.85;100268.50;2076016;28;19975;-68
2021/08/18 03:47:58;;;;;;;;;;;;;;;23.96;56.76;100261.31;2076220;28;20458;-68
2021/08/18 03:49:00;;;;;;;;;;;;;;;23.95;56.86;100260.41;2075809;28;20028;-69
2021/08/18 03:50:00;;;;;;;;;;;;;;;23.96;56.79;100262.16;2079418;28;19913;-67
2021/08/18 03:51:00;;;;;;;;;;;;;;;23.95;56.85;100254.91;2079596;28;19924;-67
2021/08/18 03:52:01;;;;;;;;;;;;;;;23.99;56.67;100266.44;2081227;28;19917;-66
2021/08/18 03:53:01;;;;;;;;;;;;;;;23.99;56.73;100268.34;2077353;28;19974;-69
2021/08/18 03:54:01;;;;;;;;;;;;;;;24.00;56.65;100254.38;2079486;28;20011;-67
2021/08/18 03:55:02;;;;;;;;;;;;;;;24.00;56.84;100256.28;2085191;28;20121;-68
2021/08/18 03:56:02;;;;;;;;;;;;;;;24.00;57.12;100259.03;2078889;28;20019;-67
2021/08/18 03:57:02;;;;;;;;;;;;;;;23.99;57.27;100257.34;2077128;28;19994;-68
2021/08/18 03:58:03;;;;;;;;;;;;;;;23.98;57.37;100253.69;2079363;28;20429;-67
2021/08/18 03:59:03;;;;;;;;;;;;;;;23.99;57.58;100251.84;2079412;28;19928;-69
2021/08/18 04:00:04;;;;;;;;;;;;;;;23.99;57.69;100257.34;2080246;28;19951;-71
2021/08/18 04:01:06;;;;;;;;;;;;;;;23.98;57.84;100255.59;2078228;28;20073;-69
2021/08/18 04:02:06;;;;;;;;;;;;;;;23.99;58.14;100254.59;2078678;28;19924;-69
2021/08/18 04:03:06;;;;;;;;;;;;;;;23.98;58.13;100247.34;2078896;28;19960;-69
2021/08/18 04:04:07;;;;;;;;;;;;;;;23.98;58.23;100252.84;2078431;28;19944;-70
2021/08/18 04:05:07;;;;;;;;;;;;;;;23.95;58.28;100249.41;2076971;28;19920;-69
2021/08/18 04:06:08;;;;;;;;;;;;;;;23.96;58.45;100250.28;2082451;28;20244;-70
2021/08/18 04:07:08;;;;;;;;;;;;;;;23.95;58.33;100252.16;2077770;28;20405;-69
2021/08/18 04:08:08;;;;;;;;;;;;;;;23.95;58.10;100260.41;2078627;28;19948;-70
2021/08/18 04:09:09;;;;;;;;;;;;;;;23.95;57.88;100246.66;2079282;28;20370;-69
2021/08/18 04:10:10;;;;;;;;;;;;;;;23.95;57.73;100259.56;2079502;28;20351;-69
2021/08/18 04:11:11;;;;;;;;;;;;;;;23.95;57.50;100260.41;2078382;28;20031;-69
2021/08/18 04:12:11;;;;;;;;;;;;;;;23.94;57.48;100253.22;2081022;28;19928;-69
2021/08/18 04:13:11;;;;;;;;;;;;;;;23.93;57.43;100251.50;2083515;28;19920;-69
2021/08/18 04:14:12;;;;;;;;;;;;;;;23.93;57.42;100246.00;2076859;28;19927;-69
2021/08/18 04:15:12;;;;;;;;;;;;;;;23.94;57.28;100247.72;2087237;28;19962;-69
2021/08/18 04:16:12;;;;;;;;;;;;;;;23.94;57.42;100242.19;2085235;28;19954;-70
2021/08/18 04:17:13;;;;;;;;;;;;;;;23.95;57.26;100249.41;2078088;28;19920;-70
2021/08/18 04:18:13;;;;;;;;;;;;;;;23.94;57.21;100247.72;2078543;28;19920;-70
2021/08/18 04:19:14;;;;;;;;;;;;;;;23.94;57.17;100242.19;2079412;28;20348;-70
2021/08/18 04:20:14;;;;;;;;;;;;;;;23.93;57.20;100242.38;2079997;28;19916;-70
2021/08/18 04:21:15;;;;;;;;;;;;;;;23.93;57.24;100239.59;2079676;28;19924;-70
2021/08/18 04:22:15;;;;;;;;;;;;;;;23.92;57.23;100238.75;2081577;28;19920;-69
2021/08/18 04:23:15;;;;;;;;;;;;;;;23.92;57.15;100244.25;2078651;28;19957;-70
2021/08/18 04:24:16;;;;;;;;;;;;;;;23.94;57.21;100241.34;2080690;28;19932;-70
2021/08/18 04:25:17;;;;;;;;;;;;;;;23.93;57.27;100248.75;2074739;28;19921;-70
2021/08/18 04:26:17;;;;;;;;;;;;;;;23.93;57.22;100239.59;2073667;28;19921;-70
2021/08/18 04:27:17;;;;;;;;;;;;;;;23.92;57.17;100241.50;2076530;28;20011;-69
2021/08/18 04:28:18;;;;;;;;;;;;;;;23.93;57.21;100234.09;2078627;28;19918;-69
2021/08/18 04:29:18;;;;;;;;;;;;;;;23.92;57.15;100236.00;2077585;28;19920;-69
2021/08/18 04:30:19;;;;;;;;;;;;;;;23.91;57.29;100239.81;2075771;28;20502;-69
2021/08/18 04:31:19;;;;;;;;;;;;;;;23.92;57.31;100238.75;2080512;28;19916;-70
2021/08/18 04:32:20;;;;;;;;;;;;;;;23.93;57.35;100239.59;2075961;28;19932;-69
2021/08/18 04:33:20;;;;;;;;;;;;;;;23.92;57.31;100238.75;2079861;28;20093;-70
2021/08/18 04:34:20;;;;;;;;;;;;;;;23.93;57.38;100239.59;2080065;28;20433;-69
2021/08/18 04:35:21;;;;;;;;;;;;;;;23.92;57.33;100225.00;2077964;28;20130;-69
2021/08/18 04:36:21;;;;;;;;;;;;;;;23.92;57.31;100227.75;2077472;28;20252;-69
2021/08/18 04:37:21;;;;;;;;;;;;;;;23.92;57.42;100226.91;2074834;28;20427;-69
2021/08/18 04:38:24;;;;;;;;;;;;;;;23.91;57.31;100226.03;2076700;28;19909;-69
2021/08/18 04:39:24;;;;;;;;;;;;;;;23.92;57.34;100227.75;2077450;28;19917;-69
2021/08/18 04:40:24;;;;;;;;;;;;;;;23.91;57.33;100231.56;2077831;28;19920;-69
2021/08/18 04:41:25;;;;;;;;;;;;;;;23.90;57.28;100229.81;2080625;28;19974;-69
2021/08/18 04:42:25;;;;;;;;;;;;;;;23.92;57.31;100226.91;2079413;28;19925;-69
2021/08/18 04:43:25;;;;;;;;;;;;;;;23.91;57.36;100226.03;2080105;28;20333;-69
2021/08/18 04:44:26;;;;;;;;;;;;;;;23.91;57.30;100220.53;2076440;28;20756;-69
2021/08/18 04:45:26;;;;;;;;;;;;;;;23.90;57.34;100227.06;2076531;28;19996;-69
2021/08/18 04:46:27;;;;;;;;;;;;;;;23.91;57.38;100226.03;2080699;28;19960;-69
2021/08/18 04:47:27;;;;;;;;;;;;;;;23.90;57.30;100218.81;2080090;28;19912;-69
2021/08/18 04:48:28;;;;;;;;;;;;;;;23.90;57.35;100224.31;2081568;28;19908;-69
2021/08/18 04:49:28;;;;;;;;;;;;;;;23.91;57.30;100226.03;2080059;28;19921;-69
2021/08/18 04:50:28;;;;;;;;;;;;;;;23.91;57.27;100231.56;2079204;28;19951;-69
2021/08/18 04:51:29;;;;;;;;;;;;;;;23.91;57.23;100231.56;2080785;28;19925;-69
2021/08/18 04:52:30;;;;;;;;;;;;;;;23.91;57.25;100233.41;2080173;28;20446;-69
2021/08/18 04:53:30;;;;;;;;;;;;;;;23.91;57.31;100234.31;2078708;28;19916;-69
2021/08/18 04:54:31;;;;;;;;;;;;;;;23.89;57.25;100222.59;2081467;28;19917;-68
2021/08/18 04:55:31;;;;;;;;;;;;;;;23.90;57.27;100229.81;2082823;28;20106;-69
2021/08/18 04:56:31;;;;;;;;;;;;;;;23.90;57.27;100235.31;2079707;28;20328;-68
2021/08/18 04:57:32;;;;;;;;;;;;;;;23.90;57.29;100235.31;2080306;28;20881;-68
2021/08/18 04:58:32;;;;;;;;;;;;;;;23.90;57.25;100235.31;2083459;28;20379;-69
2021/08/18 04:59:32;;;;;;;;;;;;;;;23.89;57.34;100239.13;2078224;28;20308;-69
2021/08/18 05:00:33;;;;;;;;;;;;;;;23.90;57.30;100238.06;2078478;28;20318;-69
2021/08/18 05:01:33;;;;;;;;;;;;;;;23.90;57.29;100251.00;2080244;28;19956;-69
2021/08/18 05:02:34;;;;;;;;;;;;;;;23.89;57.25;100241.03;2077182;28;20202;-69
2021/08/18 05:03:34;;;;;;;;;;;;;;;23.91;57.20;100236.19;2079101;28;20335;-69
2021/08/18 05:04:34;;;;;;;;;;;;;;;23.89;57.25;100239.13;2079824;28;19921;-69
2021/08/18 05:05:35;;;;;;;;;;;;;;;23.90;57.27;100239.97;2076851;28;19924;-69
2021/08/18 05:06:35;;;;;;;;;;;;;;;23.91;57.22;100245.31;2072406;28;19917;-69
2021/08/18 05:07:35;;;;;;;;;;;;;;;23.90;57.17;100251.00;2077842;28;19969;-69
2021/08/18 05:08:35;;;;;;;;;;;;;;;23.91;57.18;100245.31;2078144;28;20116;-69
2021/08/18 05:09:36;;;;;;;;;;;;;;;23.90;57.20;100251.84;2079564;28;19921;-69
2021/08/18 05:10:37;;;;;;;;;;;;;;;23.90;57.16;100251.00;2078754;28;19924;-68
2021/08/18 05:11:37;;;;;;;;;;;;;;;23.89;57.22;100252.03;2083104;28;20268;-68